Time;durP1;ratioP1;P1;durP2;ratioP2;P2;SDS_P1;SDS_P2;PMS_P1;PMS_P2;Temp;Humidity;BMP_temperature;BMP_pressure;BME280_temperature;BME280_humidity;BME280_pressure;Samples;Min_cycle;Max_cycle;Signal;HPM_P1;HPM_P2
2021/11/30 00:00:15;;;;;;;;;52.50;40.00;;;;;0.59;91.33;98552.25;6283785;20;2859621;-42
2021/11/30 00:02:43;;;;;;;;;37.50;28.00;;;;;0.59;90.68;98547.81;6282490;20;2862188;-43
2021/11/30 00:05:12;;;;;;;;;57.50;41.50;;;;;0.72;91.80;98547.34;6283255;20;2871082;-43
2021/11/30 00:07:42;;;;;;;;;43.33;35.00;;;;;0.56;90.95;98558.50;6281563;20;2869443;-42
2021/11/30 00:12:40;;;;;;;;;40.50;33.00;;;;;0.51;91.29;98568.38;6313184;20;2861739;-45
2021/11/30 00:15:09;;;;;;;;;44.00;39.00;;;;;0.50;91.01;98577.25;6283236;20;2858634;-42
2021/11/30 00:17:39;;;;;;;;;49.33;41.00;;;;;0.26;91.86;98586.09;6282115;20;2869281;-44
2021/11/30 00:20:08;;;;;;;;;48.00;37.00;;;;;0.38;92.41;98590.91;6315094;20;2859625;-42
2021/11/30 00:22:37;;;;;;;;;46.50;39.00;;;;;0.61;91.77;98588.25;6280960;20;2867952;-42
2021/11/30 00:25:06;;;;;;;;;22.67;19.67;;;;;0.43;92.06;98588.97;6279519;20;3556640;-41
2021/11/30 00:27:35;;;;;;;;;38.50;33.50;;;;;0.43;93.10;98595.09;6314985;20;2860690;-42
2021/11/30 00:30:05;;;;;;;;;44.50;36.00;;;;;0.32;93.22;98593.78;6279916;20;2859627;-42
2021/11/30 00:32:33;;;;;;;;;47.00;30.50;;;;;0.30;94.11;98593.84;6280546;20;2500257;-42
2021/11/30 00:35:03;;;;;;;;;44.33;36.33;;;;;0.32;94.50;98599.06;6282321;20;2859656;-42
2021/11/30 00:37:32;;;;;;;;;39.50;38.00;;;;;0.28;94.19;98600.09;6312484;20;2860676;-44
2021/11/30 00:40:02;;;;;;;;;53.67;42.33;;;;;0.29;94.75;98602.69;6278684;20;2862935;-43
2021/11/30 00:42:32;;;;;;;;;52.67;42.00;;;;;0.42;96.02;98608.34;6313077;20;2867996;-44
2021/11/30 00:45:04;;;;;;;;;45.50;39.50;;;;;0.24;95.26;98614.31;6311143;20;2865936;-43
2021/11/30 00:47:34;;;;;;;;;48.00;41.33;;;;;0.45;95.19;98613.53;6281876;20;2877467;-43
2021/11/30 00:50:06;;;;;;;;;51.00;39.67;;;;;0.43;96.26;98620.63;6310005;20;2873296;-44
2021/11/30 00:52:35;;;;;;;;;53.50;44.00;;;;;0.40;95.56;98620.75;6312651;20;2860684;-42
2021/11/30 00:55:05;;;;;;;;;40.00;34.00;;;;;0.44;95.59;98630.28;6278584;20;2500261;-41
2021/11/30 00:57:39;;;;;;;;;46.00;30.33;;;;;0.33;95.96;98628.03;6281423;20;2869002;-43
2021/11/30 01:00:17;;;;;;;;;45.50;37.50;;;;;0.39;96.04;98632.22;6314088;20;2853432;-43
2021/11/30 01:02:48;;;;;;;;;39.50;33.00;;;;;0.28;95.63;98644.97;6280531;20;2863908;-43
2021/11/30 01:05:18;;;;;;;;;44.67;37.33;;;;;0.40;95.48;98650.66;6279692;20;2873271;-44
2021/11/30 01:07:47;;;;;;;;;41.50;29.75;;;;;0.48;95.52;98644.25;6313093;20;3608601;-42
2021/11/30 01:10:17;;;;;;;;;37.00;33.00;;;;;0.43;95.81;98658.47;6310044;20;2500259;-44
2021/11/30 01:12:47;;;;;;;;;54.67;36.67;;;;;0.22;96.35;98654.81;6279741;20;2887054;-44
2021/11/30 01:15:23;;;;;;;;;51.67;39.67;;;;;0.25;96.58;98663.56;6311914;20;2876307;-43
2021/11/30 01:17:52;;;;;;;;;38.00;34.00;;;;;0.25;97.02;98659.13;6311484;20;2837853;-44
2021/11/30 01:20:22;;;;;;;;;36.00;30.00;;;;;0.28;97.18;98658.16;6282730;20;2849340;-44
2021/11/30 01:22:52;;;;;;;;;43.00;35.00;;;;;0.08;97.92;98657.13;6279204;20;2865911;-42
2021/11/30 01:25:21;;;;;;;;;47.50;34.50;;;;;0.03;98.00;98658.16;6279374;20;2867989;-43
2021/11/30 01:27:49;;;;;;;;;37.00;34.50;;;;;0.09;98.13;98660.59;6276800;20;2500314;-43
2021/11/30 01:30:20;;;;;;;;;49.50;40.50;;;;;0.12;98.11;98658.72;6277577;20;2865974;-44
2021/11/30 01:32:48;;;;;;;;;35.00;30.50;;;;;0.25;97.76;98663.56;6279053;20;2860665;-44
2021/11/30 01:35:19;;;;;;;;;44.50;36.00;;;;;0.16;97.95;98655.06;6283013;20;2868047;-46
2021/11/30 01:37:49;;;;;;;;;54.00;43.50;;;;;0.42;98.21;98662.03;6285650;20;2863804;-47
2021/11/30 01:40:23;;;;;;;;;39.00;32.00;;;;;0.48;97.96;98653.00;6285879;20;2861703;-43
2021/11/30 01:42:55;;;;;;;;;48.00;37.50;;;;;0.58;97.90;98651.75;6285202;20;2876308;-43
2021/11/30 01:50:38;;;;;;;;;57.00;43.00;;;;;0.53;98.07;98635.22;6286097;20;2884635;-43
2021/11/30 01:53:08;;;;;;;;;44.50;36.00;;;;;0.61;96.99;98640.22;6283177;20;2500269;-44
2021/11/30 01:55:37;;;;;;;;;50.00;42.00;;;;;0.39;96.94;98641.00;6284784;20;2874200;-42
2021/11/30 01:58:06;;;;;;;;;36.50;30.00;;;;;0.47;97.39;98643.34;6283226;20;2848966;-45
2021/11/30 02:00:36;;;;;;;;;30.50;28.50;;;;;0.46;97.63;98639.00;6286299;20;2850307;-43
2021/11/30 02:03:06;;;;;;;;;44.00;38.00;;;;;0.47;97.68;98642.50;6283347;20;2865895;-42
2021/11/30 02:05:38;;;;;;;;;46.50;41.00;;;;;0.36;97.81;98645.53;6284043;20;2869009;-45
2021/11/30 02:08:11;;;;;;;;;45.50;37.00;;;;;0.27;98.22;98653.81;6283261;20;2868996;-43
2021/11/30 02:10:40;;;;;;;;;44.00;35.00;;;;;0.12;98.84;98653.44;6283138;20;2500243;-42
2021/11/30 02:13:09;;;;;;;;;45.00;36.50;;;;;0.05;99.30;98656.34;6282065;20;2500249;-43
2021/11/30 02:15:41;;;;;;;;;48.00;39.50;;;;;0.10;99.77;98663.19;6280976;20;2500324;-45
2021/11/30 02:18:20;;;;;;;;;48.50;42.00;;;;;-0.06;100.00;98664.63;6283154;20;2861855;-42
2021/11/30 02:20:57;;;;;;;;;44.50;37.50;;;;;0.01;100.00;98676.72;6285846;20;2864823;-42
2021/11/30 02:26:12;;;;;;;;;58.67;46.00;;;;;0.05;100.00;98688.88;6314255;20;2868050;-43
2021/11/30 02:28:47;;;;;;;;;37.50;37.50;;;;;0.15;100.00;98685.00;6313702;20;2853400;-44
2021/11/30 02:31:20;;;;;;;;;39.00;27.00;;;;;0.16;100.00;98692.00;6280474;20;2500381;-43
2021/11/30 02:33:49;;;;;;;;;43.00;35.00;;;;;0.28;100.00;98695.13;6281143;20;2508574;-43
2021/11/30 02:36:35;;;;;;;;;44.50;41.00;;;;;0.09;100.00;98705.47;6282122;20;2869002;-43
2021/11/30 02:39:11;;;;;;;;;34.50;26.00;;;;;0.25;100.00;98695.25;6281077;20;2500274;-43
2021/11/30 02:41:43;;;;;;;;;43.50;37.50;;;;;0.34;100.00;98702.81;6279187;20;2862830;-43
2021/11/30 02:44:16;;;;;;;;;42.00;37.00;;;;;0.14;100.00;98699.13;6283854;20;2852416;-42
2021/11/30 02:47:03;;;;;;;;;45.00;38.00;;;;;0.18;100.00;98695.44;6284743;20;2864857;-47
2021/11/30 02:49:37;;;;;;;;;43.00;33.00;;;;;0.25;99.74;98711.06;6279744;20;2500389;-43
2021/11/30 02:52:13;;;;;;;;;36.50;34.50;;;;;0.07;99.85;98710.78;6279970;20;2500277;-44
2021/11/30 02:54:47;;;;;;;;;47.00;36.00;;;;;0.07;100.00;98708.16;6281587;20;2500376;-44
2021/11/30 02:57:18;;;;;;;;;37.00;33.00;;;;;0.00;100.00;98704.03;6282004;20;2674232;-44
2021/11/30 02:59:51;;;;;;;;;44.50;36.00;;;;;-0.17;100.00;98703.72;6312699;20;2861869;-44
2021/11/30 03:02:25;;;;;;;;;43.00;32.00;;;;;-0.32;100.00;98695.41;6281222;20;2487762;-45
2021/11/30 03:04:58;;;;;;;;;42.00;37.50;;;;;-0.40;100.00;98709.75;6281111;20;2500279;-46
2021/11/30 03:07:37;;;;;;;;;39.00;35.00;;;;;-0.41;100.00;98710.69;6282362;20;2502342;-43
2021/11/30 03:10:19;;;;;;;;;47.00;41.00;;;;;-0.44;100.00;98716.94;6284059;20;2864823;-44
2021/11/30 03:12:49;;;;;;;;;42.00;30.00;;;;;-0.30;100.00;98716.47;6280478;20;2500316;-43
2021/11/30 03:15:23;;;;;;;;;39.00;37.00;;;;;-0.17;100.00;98722.19;6281697;20;2500283;-44
2021/11/30 03:17:55;;;;;;;;;40.00;35.00;;;;;-0.30;100.00;98729.66;6283727;20;2860782;-45
2021/11/30 03:20:23;;;;;;;;;34.00;32.50;;;;;-0.01;100.00;98721.59;6282275;20;2850382;-46
2021/11/30 03:22:53;;;;;;;;;51.00;39.00;;;;;0.08;100.00;98725.72;6285154;20;2877475;-44
2021/11/30 03:25:23;;;;;;;;;70.00;50.67;;;;;-0.06;100.00;98727.97;6313992;20;3631505;-43
2021/11/30 03:27:52;;;;;;;;;35.00;25.50;;;;;0.26;100.00;98733.91;6314391;20;2850364;-47
2021/11/30 03:30:22;;;;;;;;;42.50;36.00;;;;;0.05;100.00;98739.00;6283789;20;2866945;-43
2021/11/30 03:35:39;;;;;;;;;33.00;29.50;;;;;0.11;100.00;98751.16;6284167;20;2851333;-43
2021/11/30 03:38:07;;;;;;;;;25.00;22.00;;;;;0.26;100.00;98747.09;6283975;20;2829426;-42
2021/11/30 03:40:35;;;;;;;;;35.00;27.00;;;;;0.12;100.00;98744.94;6280862;20;2500288;-43
2021/11/30 03:43:04;;;;;;;;;45.00;31.00;;;;;0.31;100.00;98747.81;6284062;20;2873210;-46
2021/11/30 03:45:33;;;;;;;;;28.50;25.50;;;;;0.14;100.00;98738.69;6281604;20;2500333;-43
2021/11/30 03:48:01;;;;;;;;;39.50;30.00;;;;;0.16;100.00;98747.44;6282019;20;2868003;-42
2021/11/30 03:50:29;;;;;;;;;31.00;27.00;;;;;0.12;100.00;98751.09;6280836;20;2500357;-43
2021/11/30 03:52:58;;;;;;;;;42.33;32.33;;;;;0.04;100.00;98753.13;6283691;20;2873165;-45
2021/11/30 03:55:26;;;;;;;;;38.50;36.00;;;;;0.08;100.00;98757.41;6309308;20;2500265;-46
2021/11/30 03:57:59;;;;;;;;;16.00;12.50;;;;;0.11;100.00;98757.28;6281376;20;2791946;-43
2021/11/30 04:00:28;;;;;;;;;32.00;29.00;;;;;0.24;100.00;98762.13;6282675;20;2862764;-42
2021/11/30 04:02:58;;;;;;;;;37.00;26.50;;;;;0.20;100.00;98751.69;6282259;20;2871189;-46
2021/11/30 04:05:27;;;;;;;;;30.00;27.00;;;;;0.31;99.90;98756.56;6286511;20;2500285;-47
2021/11/30 04:07:55;;;;;;;;;46.00;31.00;;;;;0.40;100.00;98761.56;6280507;20;2881497;-44
2021/11/30 04:10:25;;;;;;;;;50.00;35.00;;;;;0.25;100.00;98758.59;6282025;20;2884748;-43
2021/11/30 04:12:55;;;;;;;;;35.00;30.00;;;;;0.19;100.00;98765.81;6312283;20;2845150;-43
2021/11/30 04:15:24;;;;;;;;;44.50;29.50;;;;;0.24;100.00;98773.56;6284073;20;2879802;-43
2021/11/30 04:17:52;;;;;;;;;34.50;27.50;;;;;0.22;100.00;98763.06;6278702;20;2500411;-46
2021/11/30 04:20:20;;;;;;;;;36.00;24.00;;;;;0.25;100.00;98761.22;6280216;20;2500317;-43
2021/11/30 04:22:48;;;;;;;;;33.00;29.00;;;;;0.18;100.00;98758.78;6278641;20;2500233;-43
2021/11/30 04:25:17;;;;;;;;;37.00;30.00;;;;;0.41;100.00;98775.59;6281876;20;2834757;-43
2021/11/30 04:27:46;;;;;;;;;49.67;40.33;;;;;0.16;100.00;98771.19;6282098;20;2867988;-43
2021/11/30 04:30:16;;;;;;;;;51.50;44.00;;;;;0.24;99.56;98784.13;6311387;20;2850491;-44
2021/11/30 04:32:46;;;;;;;;;56.33;43.33;;;;;0.15;99.51;98785.28;6282936;20;2881574;-42
2021/11/30 04:35:14;;;;;;;;;62.50;46.50;;;;;0.24;99.18;98789.41;6311581;20;2503515;-43
2021/11/30 04:37:43;;;;;;;;;64.00;48.00;;;;;0.18;99.20;98805.44;6280324;20;2874403;-45
2021/11/30 04:40:15;;;;;;;;;51.00;41.00;;;;;0.31;99.16;98803.25;6281299;20;2875308;-44
2021/11/30 04:42:45;;;;;;;;;33.50;27.50;;;;;0.15;99.47;98798.47;6310891;20;2500407;-43
2021/11/30 04:47:52;;;;;;;;;34.50;32.00;;;;;0.18;99.45;98801.00;6279680;20;2500262;-44
2021/11/30 04:50:24;;;;;;;;;50.50;41.00;;;;;0.21;99.19;98800.94;6281139;20;2861700;-43
2021/11/30 04:52:56;;;;;;;;;38.50;30.00;;;;;0.06;99.50;98806.72;6278750;20;2843043;-43
2021/11/30 04:55:28;;;;;;;;;45.00;32.00;;;;;0.12;98.99;98810.94;6279559;20;2853361;-44
2021/11/30 04:58:04;;;;;;;;;30.50;30.50;;;;;0.15;99.63;98819.59;6280704;20;2850273;-42
2021/11/30 05:00:35;;;;;;;;;31.00;25.00;;;;;0.11;99.62;98825.03;6282187;20;2500300;-44
2021/11/30 05:03:06;;;;;;;;;35.50;29.50;;;;;0.19;98.77;98812.47;6307697;20;2500322;-43
2021/11/30 05:05:34;;;;;;;;;44.50;37.50;;;;;0.11;99.23;98820.63;6274773;20;2500266;-44
2021/11/30 05:08:04;;;;;;;;;34.75;28.00;;;;;-0.13;99.78;98818.78;6281508;20;3613834;-43
2021/11/30 05:10:32;;;;;;;;;34.50;30.50;;;;;-0.20;100.00;98817.25;6310047;20;2500281;-43
2021/11/30 05:13:04;;;;;;;;;34.00;29.50;;;;;-0.10;100.00;98826.59;6279375;20;2853504;-43
2021/11/30 05:15:32;;;;;;;;;39.50;31.50;;;;;-0.25;100.00;98831.44;6280372;20;2500297;-43
2021/11/30 05:18:00;;;;;;;;;32.50;24.00;;;;;-0.19;100.00;98826.88;6281476;20;2852746;-43
2021/11/30 05:20:28;;;;;;;;;30.00;26.00;;;;;-0.28;100.00;98828.91;6285528;20;2500252;-45
2021/11/30 05:22:57;;;;;;;;;31.67;28.33;;;;;-0.38;100.00;98822.19;6281650;20;3590841;-43
2021/11/30 05:25:37;;;;;;;;;33.00;27.00;;;;;-0.61;100.00;98827.31;6279355;20;2500330;-44
2021/11/30 05:28:07;;;;;;;;;33.00;28.00;;;;;-0.82;100.00;98827.03;6279877;20;2847244;-44
2021/11/30 05:30:36;;;;;;;;;32.67;26.00;;;;;-0.63;100.00;98826.47;6278643;20;3587798;-42
2021/11/30 05:33:10;;;;;;;;;32.50;31.50;;;;;-0.69;100.00;98828.38;6279987;20;2500273;-44
2021/11/30 05:35:40;;;;;;;;;36.00;34.00;;;;;-0.29;100.00;98831.59;6275622;20;2502375;-43
2021/11/30 05:38:09;;;;;;;;;49.00;38.50;;;;;-0.33;100.00;98830.81;6278637;20;2876319;-43
2021/11/30 05:40:42;;;;;;;;;47.00;42.00;;;;;-0.06;100.00;98838.78;6278571;20;2875395;-43
2021/11/30 05:43:12;;;;;;;;;43.00;40.50;;;;;-0.06;100.00;98841.41;6279861;20;2872103;-42
2021/11/30 05:45:41;;;;;;;;;38.50;32.00;;;;;-0.10;100.00;98837.16;6280953;20;2852344;-42
2021/11/30 05:48:11;;;;;;;;;41.00;35.50;;;;;-0.01;100.00;98840.34;6274600;20;2856691;-43
2021/11/30 05:50:42;;;;;;;;;43.50;35.00;;;;;-0.04;100.00;98847.50;6279614;20;2860671;-43
2021/11/30 05:53:11;;;;;;;;;42.00;34.00;;;;;0.22;99.83;98844.88;6280293;20;2864808;-43
2021/11/30 05:55:48;;;;;;;;;37.00;31.00;;;;;0.03;99.43;98838.50;6310578;20;2858700;-44
2021/11/30 05:58:16;;;;;;;;;45.50;36.00;;;;;0.05;100.00;98839.28;6280877;20;2869073;-43
2021/11/30 06:00:45;;;;;;;;;40.50;32.50;;;;;-0.04;99.92;98844.88;6273463;20;2500440;-43
2021/11/30 06:03:28;;;;;;;;;40.00;32.00;;;;;-0.12;100.00;98844.25;6276733;20;2500385;-44
2021/11/30 06:05:57;;;;;;;;;45.00;35.00;;;;;-0.12;100.00;98839.84;6278768;20;2862816;-42
2021/11/30 06:08:25;;;;;;;;;35.50;24.50;;;;;-0.11;99.73;98830.13;6275538;20;2500483;-43
2021/11/30 06:10:55;;;;;;;;;50.00;38.33;;;;;-0.13;100.00;98843.41;6276237;20;2870057;-43
2021/11/30 06:13:23;;;;;;;;;39.50;30.00;;;;;-0.03;100.00;98849.22;6312346;20;2857618;-43
2021/11/30 06:15:52;;;;;;;;;39.00;33.00;;;;;-0.05;99.90;98851.06;6276015;20;2851307;-44
2021/11/30 06:18:20;;;;;;;;;28.00;25.00;;;;;0.07;99.23;98855.94;6275347;20;2500242;-43
2021/11/30 06:20:49;;;;;;;;;31.00;29.00;;;;;-0.01;99.52;98845.63;6280977;20;2855458;-42
2021/11/30 06:23:17;;;;;;;;;24.00;22.00;;;;;0.07;99.19;98855.94;6284697;20;2830470;-42
2021/11/30 06:25:46;;;;;;;;;38.50;29.50;;;;;0.11;99.43;98852.28;6284213;20;2865007;-43
2021/11/30 06:28:14;;;;;;;;;33.00;28.00;;;;;0.06;98.97;98848.94;6278018;20;2500391;-43
2021/11/30 06:30:42;;;;;;;;;32.00;22.00;;;;;0.24;99.09;98859.78;6283398;20;2843157;-43
2021/11/30 06:33:10;;;;;;;;;34.00;28.50;;;;;0.25;98.56;98853.63;6280609;20;2500284;-42
2021/11/30 06:35:39;;;;;;;;;34.00;29.00;;;;;0.27;98.69;98857.06;6284225;20;2862744;-43
2021/11/30 06:38:07;;;;;;;;;32.00;26.00;;;;;0.34;98.22;98861.22;6283406;20;2846130;-44
2021/11/30 06:40:36;;;;;;;;;28.33;23.67;;;;;0.82;99.65;98865.75;6283804;20;3576471;-44
2021/11/30 06:43:05;;;;;;;;;24.00;23.00;;;;;0.65;97.80;98869.81;6315050;20;3571387;-42
2021/11/30 06:45:33;;;;;;;;;29.00;27.00;;;;;0.62;98.00;98869.94;6280391;20;2500430;-43
2021/11/30 06:48:02;;;;;;;;;35.00;28.00;;;;;0.66;97.28;98876.00;6282265;20;2860842;-43
2021/11/30 06:50:31;;;;;;;;;24.00;23.00;;;;;0.59;97.43;98880.59;6283935;20;3556656;-43
2021/11/30 06:52:59;;;;;;;;;23.00;22.00;;;;;0.75;97.29;98890.66;6283516;20;2828480;-43
2021/11/30 06:55:27;;;;;;;;;27.50;21.00;;;;;0.70;97.24;98893.44;6281408;20;2840074;-43
2021/11/30 06:57:56;;;;;;;;;33.50;28.50;;;;;0.84;96.23;98890.31;6281875;20;2856624;-43
2021/11/30 07:00:25;;;;;;;;;27.00;27.00;;;;;1.04;95.58;98905.47;6281059;20;2500252;-43
2021/11/30 07:02:55;;;;;;;;;26.00;23.50;;;;;1.03;95.29;98907.28;6280335;20;2500307;-43
2021/11/30 07:05:29;;;;;;;;;32.00;26.00;;;;;1.19;94.45;98912.00;6281652;20;2833613;-42
2021/11/30 07:11:00;;;;;;;;;35.50;28.00;;;;;1.22;94.45;98906.63;6315413;20;2856485;-45
2021/11/30 07:13:32;;;;;;;;;20.80;16.80;;;;;1.24;93.89;98904.78;6306422;20;2817338;-43
2021/11/30 07:16:05;;;;;;;;;33.00;22.00;;;;;1.26;93.68;98902.91;6283906;20;2859651;-43
2021/11/30 07:18:35;;;;;;;;;25.33;21.67;;;;;1.16;93.96;98902.41;6278623;20;3558714;-43
2021/11/30 07:21:04;;;;;;;;;34.00;26.00;;;;;1.22;93.96;98914.53;6277546;20;2500325;-43
2021/11/30 07:23:34;;;;;;;;;21.67;19.67;;;;;1.30;93.35;98909.84;6282774;20;3564832;-44
2021/11/30 07:26:02;;;;;;;;;25.50;25.50;;;;;1.40;94.01;98915.66;6284965;20;2835819;-43
2021/11/30 07:28:33;;;;;;;;;21.00;18.67;;;;;1.47;93.03;98917.13;6278062;20;2819141;-45
2021/11/30 07:31:10;;;;;;;;;28.00;27.00;;;;;1.67;93.76;98914.63;6311425;20;2852397;-42
2021/11/30 07:33:46;;;;;;;;;28.50;26.00;;;;;1.50;92.88;98912.63;6282509;20;2848215;-43
2021/11/30 07:36:19;;;;;;;;;35.00;29.00;;;;;1.59;92.87;98910.53;6285216;20;2845289;-43
2021/11/30 07:38:49;;;;;;;;;50.00;41.33;;;;;1.69;92.26;98906.63;6281321;20;3609590;-42
2021/11/30 07:41:19;;;;;;;;;40.50;30.50;;;;;1.98;92.53;98905.50;6312922;20;2871139;-43
2021/11/30 07:43:48;;;;;;;;;39.00;30.67;;;;;1.69;92.01;98911.94;6283095;20;2875482;-44
2021/11/30 07:46:17;;;;;;;;;44.00;41.00;;;;;1.97;91.43;98911.69;6313983;20;2868203;-42
2021/11/30 07:48:46;;;;;;;;;43.00;40.00;;;;;1.88;91.29;98912.06;6277113;20;2855446;-42
2021/11/30 07:51:16;;;;;;;;;34.00;30.50;;;;;1.99;90.67;98915.16;6282259;20;2866745;-43
2021/11/30 07:53:45;;;;;;;;;30.50;22.50;;;;;2.31;90.29;98908.56;6279643;20;2500277;-44
2021/11/30 07:56:14;;;;;;;;;29.00;21.67;;;;;1.87;89.31;98913.88;6282345;20;3563883;-42
2021/11/30 07:58:43;;;;;;;;;28.00;24.67;;;;;2.25;88.93;98907.97;6280786;20;3579419;-42
2021/11/30 08:01:14;;;;;;;;;27.50;25.50;;;;;2.14;88.38;98908.41;6282036;20;2830696;-44
2021/11/30 08:03:44;;;;;;;;;29.50;27.00;;;;;2.49;88.74;98917.56;6280310;20;2498294;-44
2021/11/30 08:06:14;;;;;;;;;38.67;28.00;;;;;2.60;87.34;98917.97;6281114;20;2870142;-43
2021/11/30 08:08:45;;;;;;;;;36.67;32.67;;;;;2.33;86.72;98914.69;6313615;20;2867093;-42
2021/11/30 08:11:14;;;;;;;;;37.00;29.00;;;;;2.42;86.92;98922.28;6313506;20;2660820;-43
2021/11/30 08:14:58;;;;;;;;;31.00;24.00;;;;;2.68;86.63;98930.06;6311417;20;2498199;-44
2021/11/30 08:17:27;;;;;;;;;37.00;29.00;;;;;2.84;87.20;98932.00;6286290;20;2857689;-44
2021/11/30 08:19:56;;;;;;;;;32.50;29.00;;;;;2.89;86.67;98921.19;6279191;20;2852330;-43
2021/11/30 08:22:25;;;;;;;;;41.50;36.00;;;;;3.06;85.59;98937.25;6286835;20;2862769;-42
2021/11/30 08:24:53;;;;;;;;;33.50;29.50;;;;;2.87;85.54;98941.63;6285377;20;2839888;-42
2021/11/30 08:27:22;;;;;;;;;41.00;37.50;;;;;2.89;85.84;98944.19;6286470;20;2862876;-42
2021/11/30 08:29:51;;;;;;;;;32.00;27.50;;;;;3.02;86.42;98950.69;6282604;20;2856514;-42
2021/11/30 08:32:22;;;;;;;;;27.00;25.50;;;;;2.91;85.25;98947.66;6285498;20;2840890;-42
2021/11/30 08:34:55;;;;;;;;;17.60;13.40;;;;;2.85;85.41;98960.22;6311125;20;2821259;-43
2021/11/30 08:37:25;;;;;;;;;33.00;27.00;;;;;2.87;84.75;98957.53;6285374;20;2862791;-43
2021/11/30 08:39:55;;;;;;;;;30.50;25.00;;;;;3.08;86.01;98950.44;6283315;20;2831648;-44
2021/11/30 08:42:25;;;;;;;;;39.67;25.00;;;;;2.95;84.63;98970.44;6286688;20;2884749;-43
2021/11/30 08:44:54;;;;;;;;;37.50;29.50;;;;;3.05;84.14;98959.41;6315555;20;2848217;-43
2021/11/30 08:47:24;;;;;;;;;37.00;30.00;;;;;3.23;83.03;98970.97;6280104;20;2845127;-42
2021/11/30 08:49:54;;;;;;;;;32.00;25.00;;;;;3.03;83.20;98968.34;6279390;20;2500357;-44
2021/11/30 08:52:27;;;;;;;;;23.00;17.67;;;;;3.19;83.75;98964.09;6285718;20;3563791;-43
2021/11/30 08:54:57;;;;;;;;;32.00;25.00;;;;;3.17;82.74;98971.25;6283339;20;2500682;-42
2021/11/30 08:57:28;;;;;;;;;44.00;35.00;;;;;3.34;83.71;98967.00;6285947;20;2852358;-43
2021/11/30 08:59:57;;;;;;;;;29.00;25.00;;;;;3.29;83.11;98962.78;6282540;20;2500334;-43
2021/11/30 09:02:26;;;;;;;;;32.00;26.00;;;;;3.30;82.91;98959.19;6284585;20;2844282;-42
2021/11/30 09:04:54;;;;;;;;;25.50;19.50;;;;;3.46;81.68;98961.16;6286018;20;2827366;-43
2021/11/30 09:07:23;;;;;;;;;30.50;25.50;;;;;3.57;81.81;98958.91;6284412;20;2844136;-43
2021/11/30 09:09:53;;;;;;;;;30.00;25.50;;;;;3.55;80.82;98959.91;6282456;20;2845024;-42
2021/11/30 09:12:21;;;;;;;;;24.00;20.00;;;;;3.52;80.62;98966.19;6285828;20;2826303;-42
2021/11/30 09:14:49;;;;;;;;;28.50;25.00;;;;;3.69;79.74;98963.66;6287236;20;2831484;-42
2021/11/30 09:17:20;;;;;;;;;26.50;23.00;;;;;3.93;80.36;98952.84;6285203;20;2852327;-43
2021/11/30 09:19:50;;;;;;;;;23.00;20.50;;;;;3.81;79.49;98956.91;6280360;20;2824267;-41
2021/11/30 09:22:20;;;;;;;;;29.00;23.50;;;;;3.83;77.88;98959.50;6281930;20;2500341;-42
2021/11/30 09:24:49;;;;;;;;;41.00;30.33;;;;;4.14;78.64;98956.31;6283393;20;2863816;-42
2021/11/30 09:27:17;;;;;;;;;25.50;18.00;;;;;3.94;75.86;98958.06;6313397;20;2837779;-43
2021/11/30 09:29:45;;;;;;;;;25.00;20.00;;;;;4.18;76.00;98944.56;6280736;20;2500276;-42
2021/11/30 09:32:13;;;;;;;;;17.50;17.00;;;;;4.11;74.91;98957.31;6287425;20;2831575;-41
2021/11/30 09:35:01;;;;;;;;;27.00;20.50;;;;;4.15;74.26;98952.69;6282638;20;2500242;-44
2021/11/30 09:37:29;;;;;;;;;18.00;15.00;;;;;4.44;74.04;98953.09;6283606;20;2491927;-45
2021/11/30 09:39:59;;;;;;;;;23.00;21.00;;;;;4.75;75.21;98949.81;6282563;20;2829522;-44
2021/11/30 09:42:27;;;;;;;;;18.33;12.33;;;;;4.44;73.96;98955.75;6286477;20;2807584;-44
2021/11/30 09:44:56;;;;;;;;;13.33;13.00;;;;;4.11;72.41;98949.34;6312617;20;3521301;-45
2021/11/30 09:47:25;;;;;;;;;15.33;13.67;;;;;4.30;72.60;98951.97;6312197;20;3545692;-45
2021/11/30 09:49:53;;;;;;;;;23.00;21.50;;;;;4.28;71.71;98945.00;6310743;20;2832691;-45
2021/11/30 09:52:22;;;;;;;;;28.00;23.00;;;;;4.43;72.19;98944.28;6283543;20;2833578;-43
2021/11/30 09:54:50;;;;;;;;;20.00;20.00;;;;;4.72;71.91;98937.53;6280390;20;2500249;-46
2021/11/30 09:57:18;;;;;;;;;15.50;14.50;;;;;4.49;70.46;98940.47;6284498;20;2790870;-48
2021/11/30 09:59:47;;;;;;;;;17.00;15.50;;;;;4.50;71.24;98939.50;6284107;20;2824263;-47
2021/11/30 10:02:18;;;;;;;;;19.00;17.80;;;;;4.46;70.72;98938.81;6311001;20;2821221;-45
2021/11/30 10:04:47;;;;;;;;;23.00;20.67;;;;;4.61;71.83;98940.72;6289157;20;3561730;-45
2021/11/30 10:07:14;;;;;;;;;27.50;22.50;;;;;4.49;70.16;98925.38;6319083;20;2496113;-46
2021/11/30 10:09:43;;;;;;;;;19.00;19.00;;;;;4.58;70.53;98932.00;6282254;20;2500379;-47
2021/11/30 10:12:12;;;;;;;;;24.00;20.00;;;;;4.48;70.79;98930.78;6288800;20;3564797;-46
2021/11/30 10:14:42;;;;;;;;;18.67;15.33;;;;;4.61;71.01;98927.44;6285040;20;3544047;-48
2021/11/30 10:17:26;;;;;;;;;16.00;15.00;;;;;4.46;69.62;98912.22;6322055;20;2814865;-45
2021/11/30 10:20:09;;;;;;;;;21.00;19.00;;;;;4.78;70.81;98912.44;6280838;20;2832564;-45
2021/11/30 10:22:53;;;;;;;;;17.00;15.33;;;;;5.18;72.58;98911.22;6287001;20;3560618;-47
2021/11/30 10:25:37;;;;;;;;;15.33;13.33;;;;;4.95;70.56;98914.22;6320139;20;2811796;-45
2021/11/30 10:28:16;;;;;;;;;12.00;12.00;;;;;5.78;71.94;98908.06;6317997;20;2790022;-46
2021/11/30 10:30:51;;;;;;;;;13.00;12.00;;;;;5.05;70.65;98907.50;6288304;20;2781531;-46
2021/11/30 10:33:27;;;;;;;;;21.50;16.00;;;;;5.29;70.43;98900.03;6287090;20;2842419;-45
2021/11/30 10:36:02;;;;;;;;;17.00;13.67;;;;;4.89;70.56;98888.78;6288297;20;3524213;-44
2021/11/30 10:38:39;;;;;;;;;17.50;14.00;;;;;4.93;71.19;98893.03;6320938;20;2804414;-46
2021/11/30 10:41:24;;;;;;;;;20.50;15.00;;;;;5.05;70.03;98892.41;6289458;20;2827328;-44
2021/11/30 10:44:05;;;;;;;;;20.80;11.40;;;;;4.87;70.22;98884.50;6310520;20;2814985;-44
2021/11/30 10:46:36;;;;;;;;;13.20;13.20;;;;;4.57;70.83;98887.78;6313330;20;2786834;-44
2021/11/30 10:49:07;;;;;;;;;16.67;14.67;;;;;5.09;72.08;98890.44;6285463;20;3556531;-45
2021/11/30 10:51:50;;;;;;;;;24.33;16.00;;;;;5.16;72.93;98885.63;6317595;20;3562939;-44
2021/11/30 10:54:21;;;;;;;;;20.50;15.00;;;;;4.90;69.64;98887.88;6321323;20;2822108;-44
2021/11/30 10:57:05;;;;;;;;;12.00;10.00;;;;;4.95;70.49;98883.19;6288518;20;2769007;-45
2021/11/30 10:59:33;;;;;;;;;18.00;16.33;;;;;4.73;69.44;98880.75;6286330;20;3560664;-46
2021/11/30 11:02:01;;;;;;;;;21.50;18.00;;;;;4.80;69.95;98873.31;6320266;20;2844087;-45
2021/11/30 11:04:35;;;;;;;;;25.00;20.00;;;;;4.59;70.02;98870.81;6285709;20;2500370;-45
2021/11/30 11:07:13;;;;;;;;;15.00;14.00;;;;;4.55;70.08;98863.91;6289240;20;2752317;-44
2021/11/30 11:09:50;;;;;;;;;34.67;30.00;;;;;4.51;69.88;98856.19;6286816;20;3590822;-44
2021/11/30 11:12:27;;;;;;;;;17.67;13.67;;;;;4.80;69.05;98857.38;6281752;20;3552316;-44
2021/11/30 11:14:59;;;;;;;;;20.50;15.50;;;;;4.97;67.67;98854.69;6320330;20;2812802;-44
2021/11/30 11:17:32;;;;;;;;;25.00;24.00;;;;;5.17;67.04;98842.16;6286286;20;2498337;-45
2021/11/30 11:20:02;;;;;;;;;22.00;19.00;;;;;5.31;66.47;98836.09;6284614;20;3571040;-45
2021/11/30 11:22:34;;;;;;;;;21.33;17.00;;;;;5.58;65.71;98839.03;6318305;20;3551273;-45
2021/11/30 11:25:06;;;;;;;;;45.00;39.00;;;;;5.33;65.11;98826.22;6315231;20;2484645;-45
2021/11/30 11:27:40;;;;;;;;;23.33;17.67;;;;;5.27;67.75;98830.06;6286388;20;3560753;-44
2021/11/30 11:30:12;;;;;;;;;20.00;16.50;;;;;5.17;67.25;98824.38;6283048;20;2823285;-44
2021/11/30 11:32:43;;;;;;;;;14.00;12.00;;;;;5.35;66.79;98822.53;6286085;20;2788839;-48
2021/11/30 11:35:12;;;;;;;;;26.00;17.00;;;;;5.90;66.40;98824.81;6319867;20;2855546;-45
2021/11/30 11:37:41;;;;;;;;;30.00;18.00;;;;;5.65;66.45;98824.44;6286693;20;2847157;-45
2021/11/30 11:40:12;;;;;;;;;17.00;17.00;;;;;5.53;66.04;98827.78;6285266;20;3553358;-44
2021/11/30 11:42:40;;;;;;;;;22.67;18.00;;;;;5.74;65.69;98829.28;6311718;20;3563779;-47